Terminal Aerodrome Forecast
Issued by NWS St Louis, MO

Home | Current Version | Previous Version | Text Only | Print | Product List | Glossary On
Versions: 1 2 3 4 5 6 7 8 9 10 11 12 13 14 15 16 17 18 19 20 21 22 23 24
000
FTUS43 KLSX 260749 AAA
TAFCOU
TAF AMD
KCOU 260749Z 2608/2706 VRB04KT 6SM -SHRA VCTS OVC035CB
      TEMPO 2608/2610 4SM -TSRA OVC015CB
     FM261000 19007KT P6SM OVC035
     FM261400 21007KT P6SM OVC025
     FM261800 29009KT 5SM -SHRA VCTS OVC010CB
     FM262300 32010KT P6SM OVC020=

USA.gov is the U.S. government's official web portal to all federal, state and local government web resources and services.